Arispe, Iowa
Current Conditions -  °F | °C
As of 11:35 PM on Thursday 30 Oct 2014 (Local Time) from KCSQ Reporting Station
Overcast Overcast  
Wind Chill: 38°   Ceiling: 2000
Heat Index: 46°   Visibility: 10mi
Dew Point: 37°   Wind: 26mph
Humidity: 71%   Direction: 360°N
Pressure: 30.25"   Gusts: 33mph
Location:  40.95°N, 94.22°W
Report Text: KCSQ 310435Z AUTO 36023G29KT 10SM OVC020 08/03 A3025 RMK AO2
Loading
Personal Weather Stations






























Interactive Weather Map
Tropical Storm Tracking
New forecast layout! Learn more

10-Day Weather Forecast

Advertisements
Track Severe Weather on mobile